Time;durP1;ratioP1;P1;durP2;ratioP2;P2;SDS_P1;SDS_P2;PMS_P1;PMS_P2;Temp;Humidity;BMP_temperature;BMP_pressure;BME280_temperature;BME280_humidity;BME280_pressure;Samples;Min_cycle;Max_cycle;Signal;HPM_P1;HPM_P2
2023/04/26 00:00:19;;;;;;;7.03;2.15;;;8.40;79.00;;;;;;5018673;28;21979;-74
2023/04/26 00:02:45;;;;;;;5.93;2.30;;;8.30;79.00;;;;;;5021061;28;20637;-74
2023/04/26 00:05:10;;;;;;;4.70;2.63;;;8.30;79.30;;;;;;5022703;28;20041;-74
2023/04/26 00:07:37;;;;;;;5.03;1.90;;;8.30;79.40;;;;;;5020629;28;20037;-74
2023/04/26 00:10:07;;;;;;;3.35;1.73;;;8.30;79.70;;;;;;5019741;28;20123;-74
2023/04/26 00:12:32;;;;;;;4.82;1.60;;;8.30;79.90;;;;;;5020950;28;20114;-74
2023/04/26 00:14:58;;;;;;;4.93;2.08;;;8.30;79.80;;;;;;5018096;28;20396;-74
2023/04/26 00:17:26;;;;;;;6.22;2.33;;;8.20;79.70;;;;;;5020518;28;20386;-74
2023/04/26 00:19:51;;;;;;;5.25;2.63;;;8.20;79.70;;;;;;5018980;28;20025;-75
2023/04/26 00:22:17;;;;;;;4.80;1.77;;;8.20;79.80;;;;;;5022055;28;20017;-74
2023/04/26 00:24:43;;;;;;;7.97;2.22;;;8.20;80.20;;;;;;5023813;28;20069;-75
2023/04/26 00:27:09;;;;;;;5.20;2.22;;;8.20;80.20;;;;;;5019865;28;20030;-75
2023/04/26 00:29:36;;;;;;;4.95;2.00;;;8.10;80.10;;;;;;5022040;28;20021;-73
2023/04/26 00:32:02;;;;;;;4.32;1.95;;;8.10;80.30;;;;;;5019514;28;20483;-74
2023/04/26 00:34:35;;;;;;;4.70;2.10;;;8.10;80.50;;;;;;5023908;28;20029;-74
2023/04/26 00:37:03;;;;;;;5.40;1.77;;;8.00;80.70;;;;;;5022536;28;20492;-74
2023/04/26 00:39:29;;;;;;;7.15;2.00;;;8.00;80.70;;;;;;5017976;28;20034;-73
2023/04/26 00:41:55;;;;;;;7.65;2.25;;;8.00;80.80;;;;;;5019325;28;20051;-73
2023/04/26 00:44:20;;;;;;;6.85;2.10;;;8.00;80.90;;;;;;5022977;28;20411;-73
2023/04/26 00:46:47;;;;;;;6.18;2.45;;;8.00;81.00;;;;;;5016987;28;20533;-73
2023/04/26 00:49:15;;;;;;;5.90;1.80;;;8.00;81.40;;;;;;5018698;28;20041;-72
2023/04/26 00:51:43;;;;;;;5.53;1.77;;;8.00;81.80;;;;;;5021445;28;20072;-74
2023/04/26 00:54:09;;;;;;;5.25;2.40;;;7.90;81.80;;;;;;5023779;28;20602;-73
2023/04/26 00:56:37;;;;;;;4.25;2.00;;;7.80;81.80;;;;;;5025559;28;20160;-74
2023/04/26 00:59:03;;;;;;;3.72;2.08;;;7.90;81.90;;;;;;5017671;28;20052;-74
2023/04/26 01:01:32;;;;;;;7.07;1.92;;;7.80;81.90;;;;;;5019067;28;20088;-74
2023/04/26 01:03:58;;;;;;;6.00;1.83;;;7.80;82.00;;;;;;5018653;28;20498;-75
2023/04/26 01:06:24;;;;;;;5.47;1.52;;;7.70;82.00;;;;;;5018654;28;20186;-73
2023/04/26 01:08:54;;;;;;;5.55;1.73;;;7.70;82.10;;;;;;5018528;28;20397;-74
2023/04/26 01:11:21;;;;;;;3.75;1.77;;;7.70;82.20;;;;;;5014672;28;20050;-74
2023/04/26 01:13:47;;;;;;;8.35;2.45;;;7.70;82.30;;;;;;5020664;28;20039;-74
2023/04/26 01:16:14;;;;;;;7.68;1.80;;;7.70;82.40;;;;;;5015317;28;20104;-74
2023/04/26 01:18:41;;;;;;;7.30;1.90;;;7.60;82.60;;;;;;5017274;28;20038;-73
2023/04/26 01:21:07;;;;;;;7.50;2.40;;;7.70;82.70;;;;;;5017686;28;20037;-74
2023/04/26 01:23:32;;;;;;;6.28;2.50;;;7.70;82.80;;;;;;5016836;28;20504;-74
2023/04/26 01:25:58;;;;;;;5.05;1.85;;;7.60;82.80;;;;;;5018505;28;20029;-74
2023/04/26 01:28:23;;;;;;;8.10;2.00;;;7.60;82.80;;;;;;5018926;28;20432;-74
2023/04/26 01:30:49;;;;;;;7.18;2.33;;;7.60;82.90;;;;;;5020992;28;20041;-74
2023/04/26 01:33:16;;;;;;;3.78;1.83;;;7.60;83.00;;;;;;5018696;28;20033;-74
2023/04/26 01:35:41;;;;;;;4.10;1.55;;;7.60;83.20;;;;;;5017090;28;20088;-74
2023/04/26 01:38:07;;;;;;;6.75;2.40;;;7.50;83.10;;;;;;5018599;28;20095;-74
2023/04/26 01:40:33;;;;;;;6.00;2.25;;;7.50;83.30;;;;;;5017166;28;20040;-74
2023/04/26 01:42:59;;;;;;;3.15;1.92;;;7.50;83.30;;;;;;5019717;28;20629;-74
2023/04/26 01:45:25;;;;;;;4.93;2.28;;;7.50;83.60;;;;;;5016347;28;20064;-74
2023/04/26 01:47:51;;;;;;;3.72;1.50;;;7.50;83.60;;;;;;5017368;28;20435;-74
2023/04/26 01:50:16;;;;;;;4.60;1.90;;;7.40;83.80;;;;;;5020518;28;20366;-74
2023/04/26 01:52:42;;;;;;;4.82;2.00;;;7.40;83.80;;;;;;5020720;28;20366;-75
2023/04/26 01:55:08;;;;;;;4.07;1.75;;;7.40;84.00;;;;;;5017323;28;20033;-75
2023/04/26 01:57:33;;;;;;;12.90;2.20;;;7.40;84.00;;;;;;5030084;28;20026;-74
2023/04/26 02:00:01;;;;;;;6.03;1.45;;;7.40;84.10;;;;;;5018848;28;20537;-75
2023/04/26 02:02:27;;;;;;;6.97;2.63;;;7.40;84.10;;;;;;5018743;28;20021;-75
2023/04/26 02:04:53;;;;;;;5.35;2.30;;;7.30;84.20;;;;;;5017630;28;20115;-75
2023/04/26 02:07:19;;;;;;;6.55;2.95;;;7.30;84.30;;;;;;5019340;28;20022;-75
2023/04/26 02:09:45;;;;;;;6.43;1.95;;;7.30;84.40;;;;;;5015151;28;20042;-76
2023/04/26 02:12:11;;;;;;;7.72;3.22;;;7.30;84.50;;;;;;5016841;28;20124;-75
2023/04/26 02:14:37;;;;;;;7.82;1.95;;;7.30;84.60;;;;;;5018916;28;20155;-74
2023/04/26 02:17:03;;;;;;;7.13;2.15;;;7.30;84.70;;;;;;5018713;28;20030;-75
2023/04/26 02:19:29;;;;;;;4.28;1.95;;;7.30;84.70;;;;;;5021418;28;20369;-74
2023/04/26 02:21:57;;;;;;;8.32;2.30;;;7.30;84.90;;;;;;5019151;28;20677;-76
2023/04/26 02:24:23;;;;;;;7.82;2.28;;;7.20;85.10;;;;;;5016613;28;20108;-74
2023/04/26 02:26:49;;;;;;;7.63;2.13;;;7.20;85.20;;;;;;5017576;28;20743;-75
2023/04/26 02:29:15;;;;;;;4.90;2.10;;;7.20;85.20;;;;;;5016963;28;20033;-75
2023/04/26 02:31:41;;;;;;;7.80;2.25;;;7.20;85.30;;;;;;5017005;28;20034;-75
2023/04/26 02:34:06;;;;;;;7.82;2.10;;;7.20;85.40;;;;;;5016753;28;20075;-76
2023/04/26 02:36:32;;;;;;;7.50;2.08;;;7.20;85.50;;;;;;5016842;28;20468;-76
2023/04/26 02:38:59;;;;;;;3.75;1.90;;;7.20;85.50;;;;;;5016919;28;20042;-76
2023/04/26 02:41:24;;;;;;;4.45;2.00;;;7.20;85.80;;;;;;5017697;28;20391;-75
2023/04/26 02:43:51;;;;;;;7.05;2.33;;;7.20;85.90;;;;;;5019299;28;20021;-75
2023/04/26 02:46:16;;;;;;;5.93;2.10;;;7.20;85.90;;;;;;5017271;28;20068;-75
2023/04/26 02:48:42;;;;;;;5.57;1.92;;;7.10;85.90;;;;;;5016276;28;20022;-76
2023/04/26 02:51:08;;;;;;;5.90;2.10;;;7.10;86.00;;;;;;5017182;28;20692;-75
2023/04/26 02:53:34;;;;;;;6.03;1.85;;;7.10;86.10;;;;;;5018119;28;20022;-75
2023/04/26 02:56:00;;;;;;;10.18;2.50;;;7.10;86.30;;;;;;5017029;28;20517;-76
2023/04/26 02:58:25;;;;;;;5.07;2.05;;;7.10;86.40;;;;;;5022819;28;20029;-76
2023/04/26 03:00:53;;;;;;;5.53;2.15;;;7.10;86.60;;;;;;5029088;28;21196;-76
2023/04/26 03:03:19;;;;;;;5.72;2.30;;;7.00;86.60;;;;;;5020391;28;20470;-75
2023/04/26 03:05:45;;;;;;;5.80;1.77;;;7.00;86.70;;;;;;5021271;28;20168;-75
2023/04/26 03:08:10;;;;;;;6.07;2.03;;;7.00;86.80;;;;;;5021207;28;20025;-74
2023/04/26 03:10:36;;;;;;;5.28;1.73;;;7.00;87.10;;;;;;5018874;28;20029;-74
2023/04/26 03:13:06;;;;;;;6.80;2.58;;;6.90;87.10;;;;;;5022767;28;20145;-74
2023/04/26 03:15:32;;;;;;;7.05;2.28;;;7.00;87.20;;;;;;5022552;28;20076;-75
2023/04/26 03:17:57;;;;;;;7.78;2.00;;;7.00;87.20;;;;;;5021622;28;20041;-75
2023/04/26 03:20:24;;;;;;;4.97;2.03;;;7.00;87.30;;;;;;5020084;28;20021;-75
2023/04/26 03:22:50;;;;;;;4.60;1.92;;;6.90;87.30;;;;;;5022424;28;20044;-75
2023/04/26 03:25:16;;;;;;;7.65;2.38;;;6.90;87.50;;;;;;5024000;28;20030;-74
2023/04/26 03:27:41;;;;;;;6.65;2.10;;;6.90;87.50;;;;;;5020515;28;20025;-75
2023/04/26 03:30:08;;;;;;;6.55;1.75;;;6.80;87.60;;;;;;5020209;28;20041;-74
2023/04/26 03:32:33;;;;;;;4.80;1.95;;;6.80;88.00;;;;;;5020742;28;20551;-75
2023/04/26 03:34:59;;;;;;;5.50;2.13;;;6.90;88.10;;;;;;5017871;28;20049;-75
2023/04/26 03:37:25;;;;;;;5.70;2.03;;;6.80;88.20;;;;;;5019577;28;20034;-75
2023/04/26 03:39:52;;;;;;;5.03;1.85;;;6.80;88.20;;;;;;5017066;28;20080;-75
2023/04/26 03:42:19;;;;;;;5.20;2.08;;;6.80;88.20;;;;;;5018935;28;20030;-75
2023/04/26 03:44:44;;;;;;;8.95;2.45;;;6.80;88.40;;;;;;5020996;28;20045;-74
2023/04/26 03:47:10;;;;;;;8.27;2.40;;;6.80;88.50;;;;;;5022838;28;20029;-74
2023/04/26 03:49:35;;;;;;;6.47;2.20;;;6.80;88.40;;;;;;5023031;28;20033;-74
2023/04/26 03:52:01;;;;;;;6.03;1.83;;;6.80;88.50;;;;;;5023345;28;20182;-75
2023/04/26 03:54:27;;;;;;;5.25;1.98;;;6.80;88.50;;;;;;5019925;28;20037;-75
2023/04/26 03:56:52;;;;;;;10.70;3.08;;;6.80;88.60;;;;;;5022094;28;20029;-75
2023/04/26 03:59:18;;;;;;;6.70;2.65;;;6.70;88.70;;;;;;5032587;28;20022;-74
2023/04/26 04:01:44;;;;;;;8.32;2.40;;;6.70;88.90;;;;;;5022623;28;20385;-74
2023/04/26 04:04:10;;;;;;;5.57;2.13;;;6.70;89.10;;;;;;5021293;28;20041;-74
2023/04/26 04:06:37;;;;;;;6.90;2.58;;;6.70;89.10;;;;;;5023045;28;20026;-75
2023/04/26 04:09:04;;;;;;;5.78;2.30;;;6.80;89.20;;;;;;5019881;28;20443;-74
2023/04/26 04:11:30;;;;;;;6.15;2.50;;;6.70;89.20;;;;;;5018602;28;20064;-74
2023/04/26 04:13:55;;;;;;;6.28;2.35;;;6.80;89.20;;;;;;5019826;28;20172;-74
2023/04/26 04:16:21;;;;;;;7.07;2.53;;;6.70;89.10;;;;;;5019469;28;20906;-75
2023/04/26 04:18:47;;;;;;;7.25;2.85;;;6.70;89.20;;;;;;5018473;28;20025;-75
2023/04/26 04:21:13;;;;;;;8.80;2.80;;;6.70;89.30;;;;;;5019030;28;20022;-75
2023/04/26 04:23:38;;;;;;;13.38;2.50;;;6.70;89.40;;;;;;5018326;28;20038;-75
2023/04/26 04:26:04;;;;;;;7.10;2.13;;;6.70;89.50;;;;;;5027117;28;20029;-75
2023/04/26 04:28:31;;;;;;;9.95;2.22;;;6.70;89.50;;;;;;5017709;28;20037;-75
2023/04/26 04:30:57;;;;;;;6.35;2.00;;;6.70;89.50;;;;;;5017484;28;20495;-75
2023/04/26 04:33:24;;;;;;;5.20;2.17;;;6.70;89.60;;;;;;5016695;28;20032;-74
2023/04/26 04:35:51;;;;;;;4.95;2.65;;;6.70;89.70;;;;;;5016961;28;20037;-75
2023/04/26 04:38:17;;;;;;;4.97;2.58;;;6.70;89.80;;;;;;5019751;28;20030;-74
2023/04/26 04:40:42;;;;;;;7.55;2.70;;;6.80;89.80;;;;;;5019381;28;20552;-75
2023/04/26 04:43:09;;;;;;;6.53;2.45;;;6.80;89.70;;;;;;5018679;28;20026;-74
2023/04/26 04:45:36;;;;;;;6.05;2.78;;;6.80;89.90;;;;;;5017541;28;20026;-76
2023/04/26 04:48:03;;;;;;;6.97;2.60;;;6.80;89.90;;;;;;5018172;28;20144;-74
2023/04/26 04:50:32;;;;;;;8.02;2.67;;;6.80;89.90;;;;;;5017427;28;20038;-75
2023/04/26 04:52:57;;;;;;;7.15;2.40;;;6.90;90.00;;;;;;5016543;28;20117;-75
2023/04/26 04:55:23;;;;;;;9.85;2.53;;;6.90;90.00;;;;;;5017739;28;20163;-75
2023/04/26 04:57:49;;;;;;;6.00;2.35;;;6.90;90.00;;;;;;5029550;28;20108;-75
2023/04/26 05:00:15;;;;;;;7.43;2.88;;;6.90;90.10;;;;;;5017792;28;20042;-75
2023/04/26 05:02:41;;;;;;;6.57;2.97;;;6.90;90.10;;;;;;5017491;28;20025;-77
2023/04/26 05:05:07;;;;;;;8.43;2.70;;;7.00;90.10;;;;;;5017211;28;20048;-75
2023/04/26 05:07:33;;;;;;;10.32;2.85;;;7.00;90.00;;;;;;5018862;28;20589;-75
2023/04/26 05:09:59;;;;;;;9.45;2.97;;;7.00;90.00;;;;;;5016827;28;20034;-75
2023/04/26 05:12:25;;;;;;;5.35;2.30;;;7.00;90.00;;;;;;5018029;28;20089;-75
2023/04/26 05:14:53;;;;;;;5.90;2.63;;;7.00;90.00;;;;;;5016806;28;20037;-76
2023/04/26 05:17:19;;;;;;;8.70;2.88;;;7.10;90.10;;;;;;5013884;28;20485;-75
2023/04/26 05:19:44;;;;;;;12.35;2.92;;;7.10;90.10;;;;;;5016471;28;20113;-76
2023/04/26 05:22:11;;;;;;;5.95;2.67;;;7.10;90.10;;;;;;5019629;28;20038;-77
2023/04/26 05:24:37;;;;;;;8.00;2.60;;;7.10;90.10;;;;;;5017240;28;20071;-76
2023/04/26 05:27:04;;;;;;;9.35;3.53;;;7.10;90.20;;;;;;5017843;28;20025;-76
2023/04/26 05:29:30;;;;;;;9.95;4.13;;;7.20;90.20;;;;;;5014630;28;20033;-75
2023/04/26 05:31:56;;;;;;;8.43;3.20;;;7.20;90.30;;;;;;5017453;28;20485;-75
2023/04/26 05:34:23;;;;;;;6.10;2.83;;;7.20;90.30;;;;;;5017257;28;20044;-76
2023/04/26 05:36:49;;;;;;;7.00;2.85;;;7.30;90.30;;;;;;5017931;28;20494;-76
2023/04/26 05:39:14;;;;;;;7.18;2.45;;;7.30;90.20;;;;;;5015938;28;20057;-75
2023/04/26 05:41:40;;;;;;;6.30;2.45;;;7.30;90.20;;;;;;5017658;28;20095;-76
2023/04/26 05:44:06;;;;;;;5.85;2.70;;;7.40;90.30;;;;;;5014851;28;20051;-75
2023/04/26 05:46:32;;;;;;;7.53;2.35;;;7.40;90.40;;;;;;5019072;28;20042;-75
2023/04/26 05:48:57;;;;;;;5.43;2.78;;;7.30;90.10;;;;;;5021840;28;20866;-75
2023/04/26 05:51:23;;;;;;;4.93;2.65;;;7.40;90.10;;;;;;5017307;28;20076;-75
2023/04/26 05:53:48;;;;;;;8.60;2.55;;;7.40;90.10;;;;;;5016784;28;20034;-75
2023/04/26 05:56:14;;;;;;;6.72;2.40;;;7.50;90.10;;;;;;5017315;28;20060;-76
2023/04/26 05:58:42;;;;;;;12.43;2.85;;;7.50;90.10;;;;;;5017878;28;20431;-76
2023/04/26 06:01:07;;;;;;;12.45;2.70;;;7.60;90.10;;;;;;5014616;28;20033;-76
2023/04/26 06:03:33;;;;;;;6.85;2.47;;;7.60;90.10;;;;;;5016821;28;20548;-75
2023/04/26 06:05:59;;;;;;;5.45;2.22;;;7.70;90.10;;;;;;5016616;28;20050;-76
2023/04/26 06:08:27;;;;;;;8.90;2.67;;;7.70;90.10;;;;;;5019504;28;20041;-76
2023/04/26 06:10:53;;;;;;;5.97;2.50;;;7.70;90.10;;;;;;5017442;28;20034;-76
2023/04/26 06:13:19;;;;;;;8.60;2.70;;;7.70;90.10;;;;;;5019100;28;20044;-77
2023/04/26 06:15:44;;;;;;;5.82;2.70;;;7.80;90.10;;;;;;5017899;28;20855;-76
2023/04/26 06:18:10;;;;;;;6.82;2.55;;;7.80;90.10;;;;;;5018962;28;20562;-75
2023/04/26 06:20:36;;;;;;;9.93;2.40;;;7.90;90.00;;;;;;5024836;28;20033;-74
2023/04/26 06:23:01;;;;;;;6.30;2.58;;;8.00;90.00;;;;;;5019495;28;20068;-75
2023/04/26 06:25:27;;;;;;;4.40;2.63;;;8.00;89.90;;;;;;5017739;28;20037;-76
2023/04/26 06:27:53;;;;;;;4.95;2.58;;;8.10;89.80;;;;;;5019476;28;20112;-76
2023/04/26 06:30:19;;;;;;;13.32;2.67;;;8.00;89.60;;;;;;5019067;28;20036;-77
2023/04/26 06:32:45;;;;;;;6.88;2.72;;;8.10;89.60;;;;;;5022639;28;20033;-72
2023/04/26 06:35:10;;;;;;;10.35;2.97;;;8.20;89.50;;;;;;5016170;28;20025;-75
2023/04/26 06:37:37;;;;;;;4.45;2.80;;;8.10;89.80;;;;;;5014704;28;20095;-74
2023/04/26 06:40:03;;;;;;;7.90;2.55;;;8.20;89.80;;;;;;5016257;28;20026;-75
2023/04/26 06:42:29;;;;;;;5.35;2.53;;;8.20;89.80;;;;;;5016626;28;20061;-76
2023/04/26 06:44:54;;;;;;;8.05;3.10;;;8.30;89.70;;;;;;5018262;28;20105;-75
2023/04/26 06:47:20;;;;;;;6.80;2.65;;;8.30;89.50;;;;;;5014109;28;20708;-75
2023/04/26 06:49:46;;;;;;;8.85;2.97;;;8.40;89.50;;;;;;5016905;28;20128;-74
2023/04/26 06:52:11;;;;;;;10.20;2.45;;;8.40;89.40;;;;;;5017132;28;20030;-73
2023/04/26 06:54:37;;;;;;;7.43;3.22;;;8.50;89.60;;;;;;5017838;28;20524;-74
2023/04/26 06:57:03;;;;;;;6.82;2.92;;;8.60;89.40;;;;;;5015624;28;20551;-73
2023/04/26 06:59:28;;;;;;;6.30;2.60;;;8.70;89.30;;;;;;5016749;28;20033;-74
2023/04/26 07:01:54;;;;;;;6.45;2.10;;;8.70;88.90;;;;;;5022840;28;20067;-70
2023/04/26 07:04:20;;;;;;;7.07;2.70;;;8.80;88.80;;;;;;5015820;28;20047;-76
2023/04/26 07:06:45;;;;;;;5.20;2.60;;;8.90;88.50;;;;;;5015801;28;20037;-73
2023/04/26 07:09:12;;;;;;;6.45;2.55;;;9.00;88.30;;;;;;5015179;28;20256;-75
2023/04/26 07:11:37;;;;;;;10.60;2.50;;;9.10;87.80;;;;;;5015623;28;20045;-75
2023/04/26 07:14:04;;;;;;;9.30;2.67;;;8.90;86.90;;;;;;5016296;28;20044;-75
2023/04/26 07:16:30;;;;;;;6.65;2.25;;;9.00;87.30;;;;;;5016088;28;20564;-75
2023/04/26 07:18:58;;;;;;;10.93;2.58;;;9.00;87.60;;;;;;5016540;28;21899;-75
2023/04/26 07:21:25;;;;;;;6.43;3.10;;;9.10;87.20;;;;;;5015868;28;20486;-74
2023/04/26 07:23:57;;;;;;;9.10;2.55;;;9.10;86.90;;;;;;5015866;28;20397;-76
2023/04/26 07:26:25;;;;;;;5.25;2.63;;;9.10;86.90;;;;;;5013479;28;20025;-75
2023/04/26 07:28:51;;;;;;;8.63;2.92;;;9.10;86.80;;;;;;5016516;28;20146;-73
2023/04/26 07:31:17;;;;;;;8.70;2.85;;;9.20;86.60;;;;;;5014559;28;20031;-73
2023/04/26 07:33:43;;;;;;;5.90;2.47;;;9.20;86.00;;;;;;5016904;28;21018;-73
2023/04/26 07:36:09;;;;;;;4.55;2.55;;;9.20;87.30;;;;;;5014233;28;20033;-72
2023/04/26 07:38:34;;;;;;;9.15;2.88;;;9.30;87.00;;;;;;5015498;28;20366;-73
2023/04/26 07:41:00;;;;;;;5.25;2.20;;;9.40;86.20;;;;;;5015678;28;20054;-74
2023/04/26 07:43:26;;;;;;;11.30;2.90;;;9.40;86.10;;;;;;5012688;28;20030;-74
2023/04/26 07:45:52;;;;;;;6.30;2.45;;;9.50;86.00;;;;;;5014898;28;20064;-74
2023/04/26 07:48:18;;;;;;;7.20;2.55;;;9.50;85.10;;;;;;5015897;28;20037;-74
2023/04/26 07:50:44;;;;;;;6.75;2.75;;;9.60;85.70;;;;;;5019538;28;20037;-75
2023/04/26 07:53:09;;;;;;;13.13;3.10;;;9.60;84.20;;;;;;5017151;28;20021;-73
2023/04/26 07:55:36;;;;;;;5.78;2.55;;;9.70;84.50;;;;;;5019301;28;20226;-73
2023/04/26 07:58:02;;;;;;;6.35;2.58;;;9.80;84.00;;;;;;5019639;28;20029;-73
2023/04/26 08:00:28;;;;;;;7.47;1.90;;;9.90;84.00;;;;;;5025533;28;20044;-74
2023/04/26 08:02:54;;;;;;;10.27;2.80;;;10.00;83.70;;;;;;5018398;28;20033;-76
2023/04/26 08:05:19;;;;;;;7.53;2.33;;;10.00;83.60;;;;;;5018972;28;20040;-74
2023/04/26 08:07:45;;;;;;;7.65;2.53;;;10.10;83.70;;;;;;5019608;28;20480;-74
2023/04/26 08:10:11;;;;;;;8.20;1.85;;;10.20;83.30;;;;;;5018749;28;20034;-75
2023/04/26 08:12:37;;;;;;;6.47;2.15;;;10.30;82.90;;;;;;5013106;28;20042;-73
2023/04/26 08:15:04;;;;;;;8.80;2.25;;;10.40;82.70;;;;;;5016102;28;20385;-73
2023/04/26 08:17:31;;;;;;;4.45;2.20;;;10.50;82.30;;;;;;5014910;28;20034;-73
2023/04/26 08:19:57;;;;;;;5.00;1.92;;;10.50;81.30;;;;;;5017944;28;20119;-73
2023/04/26 08:22:23;;;;;;;6.68;2.67;;;10.50;81.80;;;;;;5016489;28;20033;-75
2023/04/26 08:24:50;;;;;;;6.60;2.13;;;10.50;81.90;;;;;;5016499;28;20041;-74
2023/04/26 08:27:16;;;;;;;6.20;2.20;;;10.50;81.60;;;;;;5013286;28;20030;-74
2023/04/26 08:29:42;;;;;;;10.48;2.63;;;10.60;81.50;;;;;;5015445;28;20041;-74
2023/04/26 08:32:08;;;;;;;3.97;2.40;;;10.70;81.40;;;;;;5017218;28;20036;-74
2023/04/26 08:34:33;;;;;;;7.75;2.70;;;10.70;81.30;;;;;;5014788;28;20036;-74
2023/04/26 08:36:59;;;;;;;5.88;2.40;;;10.80;81.30;;;;;;5012180;28;20034;-75
2023/04/26 08:39:25;;;;;;;6.10;2.35;;;10.90;81.10;;;;;;5014925;28;20037;-73
2023/04/26 08:41:56;;;;;;;7.95;2.35;;;11.00;80.80;;;;;;5014196;28;20033;-73
2023/04/26 08:44:23;;;;;;;3.65;1.90;;;11.00;79.90;;;;;;5015025;28;20049;-73
2023/04/26 08:47:05;;;;;;;4.85;1.98;;;11.10;80.30;;;;;;5013709;28;20401;-72
2023/04/26 08:49:40;;;;;;;3.45;1.73;;;11.00;80.70;;;;;;5015316;28;20545;-71
2023/04/26 08:52:11;;;;;;;11.77;2.72;;;11.00;81.10;;;;;;5014804;28;20116;-71
2023/04/26 08:54:38;;;;;;;4.78;3.08;;;10.90;81.40;;;;;;5015020;28;20025;-72
2023/04/26 08:57:06;;;;;;;6.20;3.13;;;10.80;82.00;;;;;;5023575;28;20035;-72
2023/04/26 08:59:34;;;;;;;6.15;2.35;;;10.80;82.70;;;;;;5014546;28;20037;-71
2023/04/26 09:02:02;;;;;;;5.80;2.25;;;10.90;83.10;;;;;;5012518;28;20037;-72
2023/04/26 09:04:28;;;;;;;4.95;2.13;;;10.90;83.00;;;;;;5012689;28;20049;-73
2023/04/26 09:06:58;;;;;;;7.32;2.88;;;11.10;83.20;;;;;;5012131;28;20025;-74
2023/04/26 09:09:25;;;;;;;7.18;2.72;;;11.20;83.10;;;;;;5014254;28;20037;-73
2023/04/26 09:11:56;;;;;;;7.25;2.00;;;11.40;82.70;;;;;;5012868;28;20053;-72
2023/04/26 09:14:22;;;;;;;5.82;1.98;;;11.40;81.40;;;;;;5013295;28;20033;-71
2023/04/26 09:16:48;;;;;;;6.47;2.45;;;11.50;81.70;;;;;;5011496;28;20030;-72
2023/04/26 09:19:14;;;;;;;6.53;2.05;;;11.50;80.90;;;;;;5013762;28;20044;-72
2023/04/26 09:21:45;;;;;;;5.72;2.13;;;11.50;80.90;;;;;;5014556;28;21602;-73
2023/04/26 09:24:12;;;;;;;4.65;2.13;;;11.60;80.60;;;;;;5014456;28;20042;-72
2023/04/26 09:26:38;;;;;;;7.00;2.35;;;11.60;79.80;;;;;;5014927;28;20116;-72
2023/04/26 09:29:12;;;;;;;4.70;2.33;;;11.70;79.60;;;;;;5012640;28;20043;-72
2023/04/26 09:31:43;;;;;;;4.88;2.03;;;11.60;79.10;;;;;;5016352;28;20017;-73
2023/04/26 09:34:10;;;;;;;5.03;1.60;;;11.50;78.40;;;;;;5026993;28;20460;-72
2023/04/26 09:36:54;;;;;;;3.80;2.17;;;11.60;78.70;;;;;;5012126;28;20105;-73
2023/04/26 09:39:50;;;;;;;5.23;2.33;;;11.70;79.40;;;;;;5014379;28;20037;-71
2023/04/26 09:42:17;;;;;;;6.45;2.05;;;11.80;79.00;;;;;;5011734;28;20730;-73
2023/04/26 09:44:43;;;;;;;3.90;1.70;;;12.00;79.00;;;;;;5014774;28;20488;-72
2023/04/26 09:47:10;;;;;;;3.58;1.52;;;12.10;78.30;;;;;;5013563;28;20038;-72
2023/04/26 09:49:50;;;;;;;6.93;2.45;;;12.20;77.90;;;;;;5015120;28;20033;-73
2023/04/26 09:52:17;;;;;;;2.58;1.83;;;12.30;77.00;;;;;;5012307;28;20048;-71
2023/04/26 09:54:48;;;;;;;4.05;1.85;;;12.40;76.70;;;;;;5009818;28;20117;-74
2023/04/26 09:57:16;;;;;;;2.65;1.23;;;12.50;76.40;;;;;;5010629;28;20050;-73
2023/04/26 09:59:44;;;;;;;4.13;1.77;;;12.50;75.40;;;;;;5012890;28;20037;-73
2023/04/26 10:02:15;;;;;;;6.18;2.47;;;12.50;74.80;;;;;;5013479;28;20033;-73
2023/04/26 10:04:43;;;;;;;3.60;1.65;;;12.60;74.50;;;;;;5012200;28;20064;-74
2023/04/26 10:07:09;;;;;;;5.00;1.80;;;12.70;74.30;;;;;;5012890;28;20022;-73
2023/04/26 10:09:35;;;;;;;5.18;1.60;;;12.80;74.00;;;;;;5015092;28;20048;-73
2023/04/26 10:12:02;;;;;;;6.90;2.42;;;12.80;73.70;;;;;;5015563;28;20053;-73
2023/04/26 10:14:28;;;;;;;3.28;1.80;;;12.80;73.10;;;;;;5011420;28;20147;-73
2023/04/26 10:16:54;;;;;;;4.68;2.17;;;12.70;72.20;;;;;;5011524;28;20067;-73
2023/04/26 10:19:21;;;;;;;5.68;2.05;;;12.70;71.90;;;;;;5012556;28;20041;-73
2023/04/26 10:21:49;;;;;;;4.55;1.88;;;12.60;71.90;;;;;;5014025;28;20026;-74
2023/04/26 10:24:15;;;;;;;2.60;1.50;;;12.70;71.90;;;;;;5012685;28;20057;-74
2023/04/26 10:26:52;;;;;;;3.63;1.90;;;12.80;72.00;;;;;;5011008;28;20034;-73
2023/04/26 10:29:19;;;;;;;7.05;2.72;;;12.90;72.10;;;;;;5013811;28;20072;-73
2023/04/26 10:32:18;;;;;;;4.53;1.90;;;12.80;70.70;;;;;;5015160;28;20120;-73
2023/04/26 10:35:04;;;;;;;4.18;1.65;;;12.80;71.50;;;;;;5013845;28;20381;-74
2023/04/26 10:37:30;;;;;;;6.43;1.88;;;12.80;71.20;;;;;;5012419;28;20053;-73
2023/04/26 10:40:26;;;;;;;4.55;2.05;;;12.70;70.70;;;;;;5011660;28;20464;-73
2023/04/26 10:43:15;;;;;;;6.07;1.90;;;12.60;70.50;;;;;;5014129;28;20033;-73
2023/04/26 10:45:41;;;;;;;6.72;1.92;;;12.40;69.20;;;;;;5013592;28;20041;-73
2023/04/26 10:48:42;;;;;;;5.25;2.08;;;12.40;69.70;;;;;;5011745;28;20045;-72
2023/04/26 10:51:10;;;;;;;5.97;2.38;;;12.20;69.10;;;;;;5031563;28;20584;-72
2023/04/26 10:53:50;;;;;;;5.57;2.40;;;12.00;70.30;;;;;;5017466;28;20057;-73
2023/04/26 10:56:22;;;;;;;6.78;1.85;;;12.00;70.50;;;;;;5013667;28;20127;-73
2023/04/26 10:58:48;;;;;;;5.53;2.17;;;12.00;70.30;;;;;;5014156;28;20037;-74
2023/04/26 11:01:16;;;;;;;4.30;1.95;;;12.10;70.60;;;;;;5013988;28;20088;-73
2023/04/26 11:03:43;;;;;;;6.25;1.88;;;12.10;70.50;;;;;;5014877;28;20030;-72
2023/04/26 11:06:12;;;;;;;6.20;2.38;;;12.20;70.60;;;;;;5011535;28;20453;-72
2023/04/26 11:08:38;;;;;;;4.35;1.95;;;12.30;71.00;;;;;;5013446;28;20029;-73
2023/04/26 11:11:07;;;;;;;7.38;2.30;;;12.30;70.30;;;;;;5012863;28;20041;-73
2023/04/26 11:13:36;;;;;;;4.97;1.90;;;12.30;69.90;;;;;;5012957;28;20068;-74
2023/04/26 11:16:10;;;;;;;5.60;2.15;;;12.30;69.70;;;;;;5014813;28;20033;-73
2023/04/26 11:18:37;;;;;;;8.52;2.22;;;12.40;69.70;;;;;;5016204;28;20140;-73
2023/04/26 11:21:05;;;;;;;3.92;2.38;;;12.40;69.50;;;;;;5016631;28;20105;-74
2023/04/26 11:23:31;;;;;;;5.28;2.25;;;12.40;69.40;;;;;;5017228;28;20048;-74
2023/04/26 11:26:02;;;;;;;6.13;2.17;;;12.50;69.00;;;;;;5016450;28;20034;-74
2023/04/26 11:28:28;;;;;;;9.52;2.63;;;12.50;69.00;;;;;;5014835;28;20815;-74
2023/04/26 11:30:54;;;;;;;4.30;1.88;;;12.60;68.70;;;;;;5017827;28;20117;-74
2023/04/26 11:33:23;;;;;;;5.43;2.90;;;12.70;68.60;;;;;;5016178;28;20061;-74
2023/04/26 11:35:53;;;;;;;5.05;2.50;;;12.80;67.90;;;;;;5015626;28;20036;-74
2023/04/26 11:38:23;;;;;;;4.90;2.80;;;12.90;67.50;;;;;;5016703;28;20100;-71
2023/04/26 11:41:00;;;;;;;7.47;2.20;;;13.10;67.00;;;;;;5016128;28;20498;-71
2023/04/26 11:43:36;;;;;;;4.97;2.00;;;13.10;66.60;;;;;;5015149;28;20508;-71
2023/04/26 11:46:03;;;;;;;3.28;2.15;;;13.10;66.10;;;;;;5014598;28;20545;-72
2023/04/26 11:48:30;;;;;;;7.28;2.45;;;13.10;66.00;;;;;;5015269;28;22241;-72
2023/04/26 11:50:58;;;;;;;3.88;2.10;;;13.10;66.50;;;;;;5016627;28;20037;-73
2023/04/26 11:53:24;;;;;;;5.20;3.05;;;13.00;66.10;;;;;;5015416;28;20033;-72
2023/04/26 11:55:51;;;;;;;6.00;2.67;;;13.10;65.70;;;;;;5013656;28;20120;-73
2023/04/26 11:58:16;;;;;;;5.97;2.72;;;13.00;66.20;;;;;;5018884;28;20377;-73
2023/04/26 12:00:59;;;;;;;4.78;2.80;;;13.00;66.40;;;;;;5014768;28;20030;-74
2023/04/26 12:03:36;;;;;;;6.03;2.50;;;13.00;66.50;;;;;;5015638;28;20489;-73
2023/04/26 12:06:02;;;;;;;6.53;2.65;;;13.00;66.70;;;;;;5016324;28;20649;-73
2023/04/26 12:08:29;;;;;;;4.05;2.08;;;13.10;66.90;;;;;;5016353;28;20121;-71
2023/04/26 12:11:01;;;;;;;9.15;2.60;;;13.10;67.00;;;;;;5015917;28;20136;-72
2023/04/26 12:13:30;;;;;;;6.10;2.00;;;13.10;66.30;;;;;;5019801;28;20029;-71
2023/04/26 12:15:56;;;;;;;5.28;2.30;;;13.10;65.30;;;;;;5017481;28;20061;-70
2023/04/26 12:18:29;;;;;;;5.10;2.55;;;12.90;64.30;;;;;;5013648;28;20125;-72
2023/04/26 12:20:58;;;;;;;4.68;1.90;;;12.80;64.20;;;;;;5014614;28;20666;-72
2023/04/26 12:23:24;;;;;;;6.55;2.40;;;12.80;64.10;;;;;;5017232;28;20045;-70
2023/04/26 12:25:53;;;;;;;4.55;2.63;;;12.80;64.50;;;;;;5014420;28;20033;-70
2023/04/26 12:28:19;;;;;;;9.10;3.03;;;12.90;64.70;;;;;;5014574;28;20125;-72
2023/04/26 12:30:45;;;;;;;6.38;2.63;;;12.80;64.90;;;;;;5013108;28;20510;-71
2023/04/26 12:33:11;;;;;;;7.10;3.38;;;12.90;65.40;;;;;;5028576;28;20026;-71
2023/04/26 12:35:37;;;;;;;5.93;2.60;;;12.90;65.30;;;;;;5010786;28;20397;-71
2023/04/26 12:38:02;;;;;;;6.97;3.08;;;12.90;65.30;;;;;;5014238;28;20022;-72
2023/04/26 12:40:28;;;;;;;5.40;2.25;;;13.00;66.40;;;;;;5015691;28;20507;-73
2023/04/26 12:42:54;;;;;;;4.43;2.25;;;13.00;65.90;;;;;;5015604;28;20033;-73
2023/04/26 12:45:22;;;;;;;7.13;3.08;;;12.90;65.70;;;;;;5015115;28;20392;-73
2023/04/26 12:47:48;;;;;;;5.18;2.58;;;13.00;65.80;;;;;;5016476;28;20034;-74
2023/04/26 12:50:14;;;;;;;4.63;2.20;;;13.00;66.00;;;;;;5018493;28;20033;-73
2023/04/26 12:52:44;;;;;;;9.50;2.80;;;13.10;66.30;;;;;;5016718;28;20030;-73